createdAt,value
2022-10-24T00:22:55.504Z,12.48
2022-10-24T00:25:22.448Z,12.45
2022-10-24T00:27:49.230Z,12.42
2022-10-24T00:30:16.240Z,12.36
2022-10-24T00:32:43.439Z,12.39
2022-10-24T00:35:10.890Z,12.33
2022-10-24T00:37:37.795Z,12.37
2022-10-24T00:40:06.358Z,12.39
2022-10-24T00:42:33.293Z,12.44
2022-10-24T00:45:03.725Z,12.48
2022-10-24T00:47:30.709Z,12.47
2022-10-24T00:50:11.829Z,12.47
2022-10-24T00:52:44.734Z,12.54
2022-10-24T00:55:12.550Z,12.53
2022-10-24T00:57:53.461Z,12.55
2022-10-24T01:00:32.465Z,12.58
2022-10-24T01:02:59.596Z,12.57
2022-10-24T01:05:39.751Z,12.62
2022-10-24T01:08:27.320Z,12.63
2022-10-24T01:11:13.126Z,12.59
2022-10-24T01:13:42.855Z,12.64
2022-10-24T01:16:20.254Z,12.65
2022-10-24T01:19:38.473Z,12.67
2022-10-24T01:22:15.717Z,12.57
2022-10-24T01:25:17.494Z,12.61
2022-10-24T01:28:15.281Z,12.64
2022-10-24T01:30:59.838Z,12.68
2022-10-24T01:33:35.349Z,12.64
2022-10-24T01:36:17.126Z,12.74
2022-10-24T01:38:55.527Z,12.73
2022-10-24T01:41:26.440Z,12.82
2022-10-24T01:44:11.753Z,12.91
2022-10-24T01:46:44.632Z,12.95
2022-10-24T01:49:17.813Z,13.00
2022-10-24T01:51:49.398Z,13.05
2022-10-24T01:54:17.049Z,13.12
2022-10-24T01:56:43.878Z,13.18
2022-10-24T01:59:26.062Z,13.20
2022-10-24T02:02:17.231Z,13.21
2022-10-24T02:05:01.404Z,13.26
2022-10-24T02:07:30.558Z,13.30
2022-10-24T02:10:03.712Z,13.36
2022-10-24T02:12:31.462Z,13.35
2022-10-24T02:15:05.499Z,13.43
2022-10-24T02:17:32.744Z,13.52
2022-10-24T02:20:00.236Z,13.58
2022-10-24T02:22:47.838Z,13.66
2022-10-24T02:25:22.293Z,13.70
2022-10-24T02:27:53.103Z,13.80
2022-10-24T02:30:23.713Z,13.83
2022-10-24T02:32:54.979Z,13.83
2022-10-24T02:35:27.014Z,13.82
2022-10-24T02:37:59.956Z,13.81
2022-10-24T02:40:26.865Z,13.79
2022-10-24T02:42:57.052Z,13.74
2022-10-24T02:45:25.176Z,13.76
2022-10-24T02:47:56.710Z,13.72
2022-10-24T02:50:23.751Z,13.63
2022-10-24T02:52:50.330Z,13.63
2022-10-24T02:55:17.147Z,13.70
2022-10-24T02:57:43.752Z,13.71
2022-10-24T03:00:11.026Z,13.78
2022-10-24T03:14:49.122Z,13.73
2022-10-24T03:17:15.820Z,13.80
2022-10-24T03:19:42.391Z,13.84
2022-10-24T03:22:11.340Z,13.91
2022-10-24T03:24:44.577Z,13.91
2022-10-24T03:27:22.440Z,13.96
2022-10-24T03:29:49.001Z,14.03
2022-10-24T03:32:17.996Z,14.01
2022-10-24T03:34:44.758Z,14.04
2022-10-24T03:37:11.670Z,14.15
2022-10-24T03:39:38.317Z,14.21
2022-10-24T03:42:04.890Z,14.23
2022-10-24T03:44:31.897Z,14.26
2022-10-24T03:46:58.547Z,14.26
2022-10-24T03:49:25.448Z,14.24
2022-10-24T03:51:52.054Z,14.35
2022-10-24T03:54:18.645Z,14.37
2022-10-24T03:56:45.565Z,14.01
2022-10-24T03:59:12.269Z,14.15
2022-10-24T04:01:39.123Z,14.29
2022-10-24T04:04:05.854Z,14.33
2022-10-24T04:06:35.632Z,14.28
2022-10-24T04:09:04.416Z,14.35
2022-10-24T04:11:31.022Z,14.35
2022-10-24T04:13:58.200Z,14.26
2022-10-24T04:16:24.861Z,14.18
2022-10-24T04:18:52.780Z,14.16
2022-10-24T04:21:21.789Z,14.14
2022-10-24T04:23:49.001Z,14.11
2022-10-24T04:26:16.731Z,14.13
2022-10-24T04:28:44.297Z,14.14
2022-10-24T04:31:10.876Z,14.18
2022-10-24T04:33:37.511Z,14.26
2022-10-24T04:36:04.482Z,14.32
2022-10-24T04:38:33.619Z,14.30
2022-10-24T04:41:00.769Z,14.34
2022-10-24T04:43:27.641Z,14.39
2022-10-24T04:45:54.215Z,14.40
2022-10-24T04:48:20.826Z,14.41
2022-10-24T04:50:48.350Z,14.45
2022-10-24T04:53:15.157Z,14.39
2022-10-24T04:55:42.097Z,14.36
2022-10-24T04:58:08.643Z,14.37
2022-10-24T05:00:35.405Z,14.37
2022-10-24T05:03:02.068Z,14.48
2022-10-24T05:05:28.739Z,14.48
2022-10-24T05:07:55.492Z,14.50
2022-10-24T05:10:22.097Z,14.58
2022-10-24T05:12:48.874Z,14.67
2022-10-24T05:15:15.593Z,14.72
2022-10-24T05:17:42.282Z,14.83
2022-10-24T05:20:09.527Z,14.77
2022-10-24T05:22:36.248Z,14.66
2022-10-24T05:25:04.427Z,14.64
2022-10-24T05:27:31.358Z,14.59
2022-10-24T05:29:58.101Z,14.54
2022-10-24T05:32:25.596Z,14.55
2022-10-24T05:34:52.695Z,14.52
2022-10-24T05:37:19.410Z,14.49
2022-10-24T05:39:46.128Z,14.48
2022-10-24T05:42:12.787Z,14.45
2022-10-24T05:44:39.415Z,14.41
2022-10-24T05:47:06.077Z,14.36
2022-10-24T05:49:32.851Z,14.36
2022-10-24T05:51:59.753Z,14.34
2022-10-24T05:54:33.245Z,14.31
2022-10-24T05:57:09.313Z,14.29
2022-10-24T05:59:35.894Z,14.29
2022-10-24T06:02:02.832Z,14.25
2022-10-24T06:04:29.625Z,14.22
2022-10-24T06:06:56.193Z,14.20
2022-10-24T06:09:22.906Z,14.27
2022-10-24T06:11:49.606Z,14.29
2022-10-24T06:14:16.922Z,14.28
2022-10-24T06:16:43.565Z,14.31
2022-10-24T06:19:10.358Z,14.25
2022-10-24T06:21:36.936Z,14.31
2022-10-24T06:24:03.678Z,14.37
2022-10-24T06:26:30.316Z,14.36
2022-10-24T06:31:59.295Z,14.33
2022-10-24T06:44:38.509Z,14.23
2022-10-24T06:55:30.289Z,14.38
2022-10-24T07:02:28.936Z,14.31
2022-10-24T07:04:57.922Z,14.38
2022-10-24T07:07:24.479Z,14.38
2022-10-24T07:09:57.414Z,14.41
2022-10-24T07:12:24.912Z,14.42
2022-10-24T07:55:22.796Z,14.78
2022-10-24T07:57:49.388Z,14.82
2022-10-24T08:00:16.519Z,14.79
2022-10-24T08:02:43.256Z,14.82
2022-10-24T08:05:11.619Z,14.84
2022-10-24T08:07:38.244Z,14.89
2022-10-24T08:10:05.814Z,14.90
2022-10-24T08:12:32.420Z,14.90
2022-10-24T08:14:59.113Z,14.93
2022-10-24T08:17:25.801Z,14.97
2022-10-24T08:19:52.877Z,15.02
2022-10-24T08:22:19.590Z,15.05
2022-10-24T08:24:46.489Z,15.03
2022-10-24T08:27:13.619Z,15.04
2022-10-24T08:29:40.649Z,15.13
2022-10-24T08:32:07.505Z,15.11
2022-10-24T08:34:34.584Z,15.08
2022-10-24T08:37:01.188Z,15.06
2022-10-24T08:39:28.683Z,15.11
2022-10-24T08:42:01.222Z,15.13
2022-10-24T08:44:27.785Z,15.17
2022-10-24T08:47:07.367Z,15.14
2022-10-24T08:49:52.841Z,15.17
2022-10-24T08:52:51.730Z,15.29
2022-10-24T08:55:50.093Z,15.29
2022-10-24T08:58:25.713Z,15.47
2022-10-24T09:00:57.558Z,15.52
2022-10-24T09:03:54.857Z,15.56
2022-10-24T09:06:20.411Z,15.56
2022-10-24T09:08:54.268Z,15.63
2022-10-24T09:11:39.999Z,15.70
2022-10-24T09:14:21.404Z,15.79
2022-10-24T09:17:24.997Z,15.75
2022-10-24T09:19:58.058Z,15.74
2022-10-24T09:22:28.590Z,15.79
2022-10-24T09:25:01.678Z,15.77
2022-10-24T09:27:32.154Z,15.84
2022-10-24T09:29:59.539Z,15.85
2022-10-24T09:32:30.647Z,15.92
2022-10-24T09:35:03.567Z,15.87
2022-10-24T09:37:44.176Z,15.92
2022-10-24T09:40:17.654Z,15.99
2022-10-24T09:43:09.016Z,16.06
2022-10-24T09:46:00.764Z,16.05
2022-10-24T09:48:39.955Z,16.15
2022-10-24T09:51:08.199Z,16.02
2022-10-24T09:54:06.502Z,16.16
2022-10-24T09:56:39.706Z,16.15
2022-10-24T09:59:31.650Z,16.18
2022-10-24T10:02:10.496Z,15.85
2022-10-24T10:04:38.457Z,16.03
2022-10-24T10:07:18.822Z,16.14
2022-10-24T10:10:00.222Z,16.22
2022-10-24T10:12:38.177Z,16.33
2022-10-24T10:15:24.282Z,16.48
2022-10-24T10:17:52.976Z,16.53
2022-10-24T10:20:40.314Z,16.70
2022-10-24T10:23:28.261Z,16.77
2022-10-24T10:26:27.739Z,16.22
2022-10-24T10:29:00.067Z,16.53
2022-10-24T10:31:48.574Z,16.28
2022-10-24T10:34:38.754Z,16.37
2022-10-24T10:37:17.129Z,16.32
2022-10-24T10:39:58.809Z,16.69
2022-10-24T10:42:41.281Z,16.77
2022-10-24T10:45:16.074Z,16.68
2022-10-24T10:48:07.202Z,16.56
2022-10-24T10:50:56.694Z,16.56
2022-10-24T10:53:32.453Z,16.57
2022-10-24T10:56:21.671Z,16.27
2022-10-24T10:59:18.862Z,16.51
2022-10-24T11:02:33.304Z,16.43
2022-10-24T11:05:14.962Z,16.43
2022-10-24T11:08:19.134Z,16.31
2022-10-24T11:11:02.732Z,16.22
2022-10-24T11:13:38.828Z,16.61
2022-10-24T11:16:17.676Z,16.62
2022-10-24T11:18:48.569Z,15.99
2022-10-24T11:21:17.812Z,16.40
2022-10-24T11:23:54.612Z,16.44
2022-10-24T11:26:34.084Z,15.99
2022-10-24T11:29:22.568Z,16.42
2022-10-24T11:31:59.421Z,16.30
2022-10-24T11:34:34.080Z,16.66
2022-10-24T11:37:07.844Z,16.71
2022-10-24T11:40:10.727Z,16.73
2022-10-24T11:42:50.697Z,16.84
2022-10-24T11:45:24.760Z,16.83
2022-10-24T11:47:59.696Z,16.91
2022-10-24T11:50:59.868Z,16.35
2022-10-24T11:53:31.071Z,17.00
2022-10-24T11:56:36.798Z,17.12
2022-10-24T11:59:06.872Z,16.95
2022-10-24T12:01:55.313Z,17.25
2022-10-24T12:04:34.938Z,17.57
2022-10-24T12:07:04.453Z,18.55
2022-10-24T12:09:33.592Z,17.77
2022-10-24T12:12:56.902Z,18.00
2022-10-24T12:15:45.821Z,17.39
2022-10-24T12:18:37.805Z,16.97
2022-10-24T12:21:27.229Z,16.88
2022-10-24T12:23:58.899Z,17.23
2022-10-24T12:26:35.967Z,16.91
2022-10-24T12:29:05.780Z,17.07
2022-10-24T12:31:34.533Z,16.75
2022-10-24T12:34:16.291Z,16.12
2022-10-24T12:37:12.085Z,16.43
2022-10-24T12:39:44.448Z,17.04
2022-10-24T12:42:24.028Z,17.23
2022-10-24T12:44:51.762Z,16.64
2022-10-24T12:47:39.925Z,16.74
2022-10-24T12:50:21.645Z,17.11
2022-10-24T12:52:48.398Z,17.11
2022-10-24T12:55:50.546Z,16.51
2022-10-24T12:58:36.153Z,17.61
2022-10-24T13:01:07.365Z,17.46
2022-10-24T13:03:55.321Z,17.09
2022-10-24T13:06:45.462Z,17.47
2022-10-24T13:09:40.313Z,19.14
2022-10-24T13:12:40.370Z,20.32
2022-10-24T13:15:25.193Z,18.40
2022-10-24T13:18:04.646Z,18.51
2022-10-24T13:20:38.562Z,19.31
2022-10-24T13:23:18.162Z,19.90
2022-10-24T13:25:45.549Z,19.16
2022-10-24T13:28:36.023Z,20.47
2022-10-24T13:31:02.588Z,20.57
2022-10-24T13:33:32.282Z,20.17
2022-10-24T13:36:17.646Z,20.20
2022-10-24T13:38:49.532Z,20.30
2022-10-24T13:41:39.541Z,18.49
2022-10-24T13:44:11.769Z,18.66
2022-10-24T13:46:53.321Z,18.38
2022-10-24T13:49:53.333Z,18.61
2022-10-24T13:52:24.396Z,18.55
2022-10-24T13:54:58.281Z,18.27
2022-10-24T13:57:28.317Z,17.97
2022-10-24T14:00:01.141Z,17.49
2022-10-24T14:02:37.214Z,17.34
2022-10-24T14:05:05.397Z,16.69
2022-10-24T14:07:33.789Z,16.89
2022-10-24T14:10:08.962Z,16.84
2022-10-24T14:12:39.210Z,16.98
2022-10-24T14:15:15.982Z,17.07
2022-10-24T14:17:53.285Z,17.10
2022-10-24T14:20:29.981Z,16.90
2022-10-24T14:22:57.438Z,17.38
2022-10-24T14:25:36.215Z,16.93
2022-10-24T14:28:14.419Z,16.98
2022-10-24T14:30:52.012Z,16.64
2022-10-24T14:33:25.568Z,16.93
2022-10-24T14:35:56.836Z,16.59
2022-10-24T14:38:27.006Z,16.70
2022-10-24T14:41:07.828Z,17.22
2022-10-24T14:43:37.281Z,16.74
2022-10-24T14:46:43.640Z,17.22
2022-10-24T14:49:26.360Z,17.25
2022-10-24T14:51:59.947Z,17.08
2022-10-24T14:54:34.123Z,16.98
2022-10-24T14:57:03.716Z,16.86
2022-10-24T14:59:35.223Z,16.92
2022-10-24T15:02:23.928Z,16.93
2022-10-24T15:04:52.056Z,16.78
2022-10-24T15:07:32.071Z,16.79
2022-10-24T15:10:02.150Z,16.57
2022-10-24T15:12:33.966Z,16.56
2022-10-24T15:15:23.597Z,16.56
2022-10-24T15:17:52.106Z,16.67
2022-10-24T15:20:24.564Z,16.75
2022-10-24T15:22:55.325Z,16.74
2022-10-24T15:25:29.374Z,16.74
2022-10-24T15:27:59.499Z,16.52
2022-10-24T15:30:34.925Z,16.59
2022-10-24T15:33:02.685Z,16.19
2022-10-24T15:35:33.953Z,16.09
2022-10-24T15:38:11.228Z,16.31
2022-10-24T15:40:42.336Z,16.38
2022-10-24T15:43:13.444Z,16.57
2022-10-24T15:45:40.213Z,16.59
2022-10-24T15:48:06.845Z,16.53
2022-10-24T15:50:33.993Z,16.61
2022-10-24T15:53:02.884Z,16.61
2022-10-24T15:55:30.734Z,16.59
2022-10-24T15:57:59.828Z,16.57
2022-10-24T16:00:26.682Z,16.50
2022-10-24T16:02:58.109Z,16.54
2022-10-24T16:05:28.309Z,16.61
2022-10-24T16:07:54.896Z,16.62
2022-10-24T16:10:23.389Z,16.54
2022-10-24T16:12:50.406Z,16.49
2022-10-24T16:15:29.023Z,16.45
2022-10-24T16:17:55.920Z,16.41
2022-10-24T16:20:22.531Z,16.45
2022-10-24T16:22:49.810Z,16.51
2022-10-24T16:25:28.501Z,16.57
2022-10-24T16:27:55.048Z,16.48
2022-10-24T16:30:25.360Z,16.53
2022-10-24T16:32:52.322Z,16.47
2022-10-24T16:35:25.780Z,16.47
2022-10-24T16:37:54.104Z,16.54
2022-10-24T16:40:21.501Z,16.50
2022-10-24T16:42:52.826Z,16.54
2022-10-24T16:45:20.425Z,16.45
2022-10-24T16:47:50.938Z,16.42
2022-10-24T16:50:24.135Z,16.15
2022-10-24T16:52:56.746Z,16.31
2022-10-24T16:55:23.612Z,16.38
2022-10-24T16:57:50.536Z,16.35
2022-10-24T17:00:19.231Z,16.18
2022-10-24T17:02:48.507Z,16.19
2022-10-24T17:05:15.754Z,15.63
2022-10-24T17:07:44.024Z,16.01
2022-10-24T17:10:12.398Z,16.08
2022-10-24T17:12:41.086Z,16.21
2022-10-24T17:15:08.603Z,15.91
2022-10-24T17:17:41.470Z,16.17
2022-10-24T17:20:09.921Z,16.01
2022-10-24T17:22:37.703Z,16.00
2022-10-24T17:25:06.026Z,16.12
2022-10-24T17:27:32.855Z,16.26
2022-10-24T17:29:59.695Z,16.31
2022-10-24T17:32:26.536Z,16.22
2022-10-24T17:34:55.451Z,16.17
2022-10-24T17:37:32.806Z,15.97
2022-10-24T17:40:06.000Z,16.18
2022-10-24T17:42:35.301Z,16.16
2022-10-24T17:45:02.010Z,15.79
2022-10-24T17:47:28.850Z,15.92
2022-10-24T17:49:55.472Z,16.08
2022-10-24T17:52:23.873Z,16.17
2022-10-24T17:54:51.162Z,15.60
2022-10-24T17:57:17.868Z,15.48
2022-10-24T17:59:44.483Z,15.40
2022-10-24T18:02:13.925Z,15.11
2022-10-24T18:04:42.794Z,15.15
2022-10-24T18:07:09.598Z,15.44
2022-10-24T18:09:39.054Z,15.17
2022-10-24T18:12:06.377Z,14.86
2022-10-24T18:14:33.094Z,14.99
2022-10-24T18:17:01.156Z,15.03
2022-10-24T18:19:27.778Z,15.39
2022-10-24T18:21:54.461Z,15.42
2022-10-24T18:24:21.389Z,14.79
2022-10-24T18:26:48.149Z,14.82
2022-10-24T18:29:14.891Z,15.40
2022-10-24T18:31:41.484Z,15.59
2022-10-24T18:34:08.843Z,15.56
2022-10-24T18:36:39.655Z,15.45
2022-10-24T18:39:06.315Z,15.09
2022-10-24T18:41:46.886Z,15.42
2022-10-24T18:44:36.056Z,15.34
2022-10-24T18:47:08.572Z,15.15
2022-10-24T18:49:38.363Z,15.24
2022-10-24T18:52:11.103Z,15.30
2022-10-24T18:54:45.180Z,15.18
2022-10-24T18:57:32.479Z,15.12
2022-10-24T18:59:59.905Z,15.29
2022-10-24T19:02:37.119Z,15.12
2022-10-24T19:05:14.375Z,15.33
2022-10-24T19:07:45.023Z,15.60
2022-10-24T19:10:28.089Z,15.02
2022-10-24T19:12:55.186Z,15.14
2022-10-24T19:15:22.365Z,15.12
2022-10-24T19:17:51.212Z,15.04
2022-10-24T19:20:21.079Z,15.24
2022-10-24T19:22:48.191Z,15.45
2022-10-24T19:25:16.144Z,15.28
2022-10-24T19:27:45.398Z,15.44
2022-10-24T19:30:12.862Z,15.05
2022-10-24T19:32:39.526Z,14.96
2022-10-24T19:35:06.685Z,15.18
2022-10-24T19:37:36.062Z,15.00
2022-10-24T19:40:03.033Z,14.69
2022-10-24T19:42:29.856Z,14.55
2022-10-24T19:44:56.681Z,14.43
2022-10-24T19:47:23.628Z,14.26
2022-10-24T19:49:50.886Z,14.38
2022-10-24T19:52:17.602Z,14.42
2022-10-24T19:54:44.270Z,14.26
2022-10-24T19:57:11.717Z,14.27
2022-10-24T19:59:38.440Z,14.13
2022-10-24T20:02:05.750Z,13.89
2022-10-24T20:04:32.666Z,13.95
2022-10-24T20:06:59.544Z,14.00
2022-10-24T20:09:26.353Z,14.22
2022-10-24T20:11:53.096Z,13.94
2022-10-24T20:14:20.055Z,14.06
2022-10-24T20:16:46.747Z,13.82
2022-10-24T20:19:13.427Z,13.67
2022-10-24T20:21:40.598Z,14.07
2022-10-24T20:24:08.153Z,14.14
2022-10-24T20:26:35.466Z,13.96
2022-10-24T20:29:02.923Z,13.97
2022-10-24T20:31:50.384Z,13.94
2022-10-24T20:34:17.328Z,13.97
2022-10-24T20:36:47.285Z,13.93
2022-10-24T20:39:16.271Z,13.88
2022-10-24T20:41:43.241Z,13.93
2022-10-24T20:44:11.689Z,13.68
2022-10-24T20:46:39.038Z,14.03
2022-10-24T20:49:05.822Z,14.04
2022-10-24T20:51:32.703Z,14.24
2022-10-24T20:53:59.471Z,14.20
2022-10-24T20:56:27.076Z,13.87
2022-10-24T20:58:56.808Z,13.98
2022-10-24T21:01:36.853Z,13.69
2022-10-24T21:04:03.715Z,14.06
2022-10-24T21:06:34.453Z,14.11
2022-10-24T21:09:08.544Z,13.67
2022-10-24T21:11:38.975Z,13.72
2022-10-24T21:14:08.166Z,13.93
2022-10-24T21:16:40.902Z,13.76
2022-10-24T21:19:07.561Z,13.84
2022-10-24T21:21:34.157Z,13.95
2022-10-24T21:24:04.279Z,14.03
2022-10-24T21:26:42.673Z,13.83
2022-10-24T21:31:58.163Z,13.82
2022-10-24T21:34:26.801Z,14.07
2022-10-24T21:36:55.624Z,14.16
2022-10-24T21:39:22.506Z,14.01
2022-10-24T21:41:49.084Z,13.82
2022-10-24T21:44:15.817Z,13.53
2022-10-24T21:46:42.798Z,13.50
2022-10-24T21:49:12.624Z,13.78
2022-10-24T21:51:41.257Z,13.46
2022-10-24T21:54:16.237Z,13.91
2022-10-24T21:56:42.966Z,13.47
2022-10-24T21:59:13.014Z,13.53
2022-10-24T22:01:40.472Z,13.80
2022-10-24T22:04:08.199Z,13.97
2022-10-24T22:06:36.135Z,14.05
2022-10-24T22:09:06.992Z,13.75
2022-10-24T22:11:37.236Z,13.63
2022-10-24T22:14:05.617Z,14.00
2022-10-24T22:16:32.747Z,13.80
2022-10-24T22:19:02.267Z,14.11
2022-10-24T22:21:45.924Z,13.93
2022-10-24T22:24:19.440Z,14.14
2022-10-24T22:26:47.029Z,13.98
2022-10-24T22:29:16.723Z,14.25
2022-10-24T22:31:44.531Z,13.86
2022-10-24T22:34:15.637Z,13.79
2022-10-24T22:36:52.687Z,14.04
2022-10-24T22:39:22.585Z,14.08
2022-10-24T22:41:50.269Z,13.93
2022-10-24T22:44:20.576Z,14.24
2022-10-24T22:47:24.724Z,14.38
2022-10-24T22:49:57.606Z,14.15
2022-10-24T22:52:24.693Z,14.21
2022-10-24T22:54:52.415Z,14.03
2022-10-24T22:57:19.507Z,14.49
2022-10-24T22:59:46.429Z,14.42
2022-10-24T23:02:33.295Z,14.63
2022-10-24T23:05:05.143Z,14.16
2022-10-24T23:07:39.927Z,14.52
2022-10-24T23:10:10.671Z,14.11
2022-10-24T23:12:37.631Z,14.26
2022-10-24T23:15:04.689Z,14.45
2022-10-24T23:17:32.754Z,14.40
2022-10-24T23:19:59.956Z,14.28
2022-10-24T23:22:26.639Z,13.92
2022-10-24T23:24:55.661Z,13.99
2022-10-24T23:27:25.047Z,13.80
2022-10-24T23:29:51.834Z,14.18
2022-10-24T23:32:23.301Z,14.22
2022-10-24T23:34:51.094Z,14.33
2022-10-24T23:37:38.974Z,14.46
2022-10-24T23:40:17.887Z,13.94
2022-10-24T23:42:45.932Z,14.12
2022-10-24T23:45:24.097Z,13.83
2022-10-24T23:48:29.720Z,14.13
2022-10-24T23:51:14.261Z,13.77
2022-10-24T23:53:52.776Z,14.21
2022-10-24T23:56:24.647Z,13.94
2022-10-24T23:58:51.947Z,14.04
